Aérodrome :
LOGIN :

S'inscrire | Disclaimer

   EN    FR    IT 

 










Légende :    VFR   VFR Marginal   IFR   IFR Intensif   IFR Très Intensif
Visi : 
Plafond : 
>= 8 km
>= 3000ft
5 à 8 km
1000 à 3000 ft
1500m à 5 km
500 à 1000 ft
800 à 1500m
200 à 500 ft
< 800m
< 200 ft
Symboles :   Orages  Brouillard  Fortes neiges  Fortes précipitations  Vent > 20 kt
SIGMETs :   Divers  Orages  Givrage  Turbulence  Onde Orograph.  Cendres Volcan.







- Altitude de l'aérodrome : 256 ft
- Code IATA : CFR
- Voir les cartes d'approche


LFRK - Caen

DERNIER METAR :
  • 220830Z AUTO 18007KT 9999 ///TCU 13/10 Q1022 TEMPO RA BECMG SCT040

METARs EXPIRÉS :
  • 220800Z AUTO 18008KT 9999 -RA ///TCU 12/10 Q1022 TEMPO RA BECMG BKN040
  • 220730Z AUTO 18005KT 9999 -RA ///TCU 12/10 Q1022 TEMPO RA BECMG BKN040
  • 220700Z AUTO 16005KT 9999 -RA FEW048/// SCT092/// OVC110/// ///TCU 12/10 Q1022 BECMG BKN040
  • 220630Z AUTO 17005KT 9999 -RA ///TCU 12/09 Q1022 BECMG BKN040
  • 220600Z AUTO 18006KT 9999 ///TCU 12/09 Q1022 BECMG BKN040

TAF TAF LFRK
Valide du 22 à 09h jusqu'au 22 à 18h UTC


220800Z 2209/2218 20008KT 9999 SCT040
TEMPO 2209/2218 5000 RA
BECMG 2212/2214 14010KT
BECMG 2216/2218 20015G30KT BKN015
Météo : +33 2 31 26 68 11
Pas de NOTAMs connus pour ce terrain.
1 SIGMET publié pour la FIR Brest (LFRR) :
 
Givrage fort
LFRR SIGMET 1 VALID 220630/221000 LFPW
LFRR BREST FIR/UIR SEV ICE FCST WI N4930 W00445 - N5000 W00200 - N5000 W00015 - N4845 W00015 - N4900 W00400 - N4930 W00445 FL080/200 MOV E 35KT NC=



MET'MAP, la Météo Aéronautique d'un coup d'oeil ! - Copyright ORBIFLY Décembre 2007 - Disclaimer

ORBIFLY MET'MAP TEAM :

Programmation & Développement : Alexandra Zaïnal
Conception & Développement : Baudouin d'Aumeries
Co-Programmation & Développement : Marc-Olivier Méhu
Soutien technique & logistique : Manuel Goepfert

Contact : metmap@orbifly.com




SOURCES & CREDITS :

   NOAA